HFM777 AT98-YPPH
Flight info
| Callsign | HFM777 |
|---|---|
| Flight time | N/A |
| Altitude | 35000 |
| Route | 73S025E 73S044E/N0462F370 71S062E 69S076E 65S086E 61S094E 56S100E 52S104E/N0456F390 47S108E 42S111E 37S114E DCT HIDOT |
| Aircraft | A343/H-SDE2E3FGHIJ4J5M1RWXY/LB1D1 |
Departure
| Time | 2026-05-01 11:44 |
|---|---|
| Airport | (Duplicate)Wolf's Fang Runway (AT98) |
Arrival
| Time | N/A |
|---|---|
| Airport | Perth International Airport (YPPH) |
| Time | Latitude | Longitude | Altitude | Speed | Heading |
|---|---|---|---|---|---|
| 2026-05-01 11:14 | -71.52694 | 8.80219 | 4093 ft | 0 kts | 355° |
| 2026-05-01 11:40 | -71.52693 | 8.80219 | 4088 ft | 1 kts | 355° |
| 2026-05-01 11:40 | -71.52690 | 8.80218 | 4096 ft | 0 kts | 355° |
| 2026-05-01 11:40 | -71.52683 | 8.80216 | 4095 ft | 1 kts | 353° |
| 2026-05-01 11:41 | -71.52665 | 8.80173 | 4098 ft | 9 kts | 322° |
| 2026-05-01 11:41 | -71.52647 | 8.80034 | 4095 ft | 3 kts | 276° |
| 2026-05-01 11:41 | -71.52648 | 8.79988 | 4096 ft | 6 kts | 261° |
| 2026-05-01 11:41 | -71.52676 | 8.79936 | 4096 ft | 7 kts | 191° |
| 2026-05-01 11:42 | -71.52716 | 8.79940 | 4097 ft | 0 kts | 175° |
| 2026-05-01 11:43 | -71.52721 | 8.79941 | 4096 ft | 8 kts | 175° |
| 2026-05-01 11:43 | -71.52949 | 8.80003 | 4112 ft | 58 kts | 175° |
| 2026-05-01 11:43 | -71.53507 | 8.80141 | 4128 ft | 101 kts | 175° |
| 2026-05-01 11:44 | -71.55370 | 8.80695 | 4398 ft | 153 kts | 174° |
| 2026-05-01 11:44 | -71.56435 | 8.80998 | 4674 ft | 155 kts | 174° |
| 2026-05-01 11:44 | -71.57420 | 8.82434 | 4840 ft | 166 kts | 131° |
| 2026-05-01 11:44 | -71.57923 | 8.85802 | 5386 ft | 175 kts | 108° |
| 2026-05-01 11:45 | -71.58306 | 8.89583 | 5877 ft | 186 kts | 117° |
| 2026-05-01 11:45 | -71.58938 | 8.93310 | 6318 ft | 200 kts | 123° |
| 2026-05-01 11:45 | -71.59710 | 8.97188 | 6579 ft | 220 kts | 122° |
| 2026-05-01 11:45 | -71.60528 | 9.01508 | 6882 ft | 237 kts | 119° |
| 2026-05-01 11:46 | -71.61330 | 9.06271 | 7271 ft | 251 kts | 116° |
| 2026-05-01 11:46 | -71.62091 | 9.11324 | 7860 ft | 256 kts | 112° |
| 2026-05-01 11:46 | -71.62807 | 9.16433 | 8534 ft | 259 kts | 111° |
| 2026-05-01 11:46 | -71.63529 | 9.21791 | 9173 ft | 263 kts | 109° |
| 2026-05-01 11:47 | -71.64247 | 9.27198 | 9683 ft | 270 kts | 109° |
| 2026-05-01 11:47 | -71.64979 | 9.32738 | 10012 ft | 283 kts | 109° |
| 2026-05-01 11:47 | -71.65759 | 9.38625 | 10305 ft | 296 kts | 109° |
| 2026-05-01 11:47 | -71.66577 | 9.44773 | 10566 ft | 309 kts | 110° |
| 2026-05-01 11:48 | -71.67435 | 9.51200 | 10835 ft | 322 kts | 110° |
| 2026-05-01 11:48 | -71.68330 | 9.57892 | 11112 ft | 335 kts | 110° |
| 2026-05-01 11:48 | -71.69252 | 9.64802 | 11495 ft | 343 kts | 110° |
| 2026-05-01 11:48 | -71.70192 | 9.71865 | 12001 ft | 349 kts | 110° |
| 2026-05-01 11:49 | -71.71137 | 9.79016 | 12515 ft | 354 kts | 110° |
| 2026-05-01 11:49 | -71.72097 | 9.86295 | 13048 ft | 358 kts | 110° |
| 2026-05-01 11:49 | -71.73064 | 9.93647 | 13555 ft | 362 kts | 110° |
| 2026-05-01 11:49 | -71.74038 | 10.01084 | 14095 ft | 364 kts | 110° |
| 2026-05-01 11:50 | -71.75011 | 10.08555 | 14637 ft | 366 kts | 110° |
| 2026-05-01 11:50 | -71.75988 | 10.16096 | 15166 ft | 369 kts | 110° |
| 2026-05-01 11:50 | -71.76968 | 10.23682 | 15730 ft | 371 kts | 110° |
| 2026-05-01 11:50 | -71.77948 | 10.31314 | 16231 ft | 373 kts | 110° |
| 2026-05-01 11:51 | -71.78934 | 10.39025 | 16767 ft | 375 kts | 110° |
| 2026-05-01 11:51 | -71.79923 | 10.46782 | 17318 ft | 378 kts | 110° |
| 2026-05-01 11:51 | -71.80914 | 10.54599 | 17802 ft | 381 kts | 110° |
| 2026-05-01 11:51 | -71.81911 | 10.62496 | 18244 ft | 383 kts | 110° |
| 2026-05-01 11:52 | -71.82909 | 10.70437 | 18668 ft | 386 kts | 110° |
| 2026-05-01 11:52 | -71.83912 | 10.78452 | 19069 ft | 390 kts | 110° |
| 2026-05-01 11:52 | -71.84922 | 10.86562 | 19486 ft | 393 kts | 109° |
| 2026-05-01 11:52 | -71.85936 | 10.94737 | 19919 ft | 396 kts | 109° |
| 2026-05-01 11:53 | -71.86939 | 11.02857 | 20343 ft | 398 kts | 109° |
| 2026-05-01 11:53 | -71.87973 | 11.11263 | 20743 ft | 401 kts | 109° |
| 2026-05-01 11:53 | -71.88985 | 11.19533 | 21115 ft | 405 kts | 109° |
| 2026-05-01 11:53 | -71.90014 | 11.27977 | 21522 ft | 407 kts | 109° |
| 2026-05-01 11:54 | -71.91047 | 11.36492 | 21908 ft | 410 kts | 109° |
| 2026-05-01 11:54 | -71.92082 | 11.45066 | 22266 ft | 412 kts | 109° |
| 2026-05-01 11:54 | -71.93124 | 11.53744 | 22484 ft | 419 kts | 109° |
| 2026-05-01 11:54 | -71.93834 | 11.59688 | 22699 ft | 421 kts | 109° |
| 2026-05-01 11:55 | -71.95225 | 11.71369 | 23163 ft | 423 kts | 108° |
| 2026-05-01 11:55 | -71.96281 | 11.80286 | 23498 ft | 425 kts | 108° |
| 2026-05-01 11:55 | -71.97331 | 11.89194 | 23872 ft | 425 kts | 109° |
| 2026-05-01 11:55 | -71.98380 | 11.98139 | 24150 ft | 428 kts | 109° |
| 2026-05-01 11:56 | -71.99433 | 12.07171 | 24430 ft | 430 kts | 108° |
| 2026-05-01 11:56 | -72.00484 | 12.16235 | 24732 ft | 432 kts | 108° |
| 2026-05-01 11:56 | -72.01535 | 12.25341 | 24975 ft | 435 kts | 108° |
| 2026-05-01 11:56 | -72.02591 | 12.34549 | 25234 ft | 438 kts | 109° |
| 2026-05-01 11:57 | -72.03649 | 12.43818 | 25521 ft | 439 kts | 109° |
| 2026-05-01 11:57 | -72.04350 | 12.49983 | 25712 ft | 440 kts | 108° |
| 2026-05-01 11:57 | -72.05765 | 12.62491 | 26047 ft | 444 kts | 108° |
| 2026-05-01 11:57 | -72.06825 | 12.71924 | 26294 ft | 446 kts | 109° |
| 2026-05-01 11:58 | -72.07884 | 12.81402 | 26551 ft | 448 kts | 108° |
| 2026-05-01 11:58 | -72.08944 | 12.90941 | 26837 ft | 450 kts | 108° |
| 2026-05-01 11:58 | -72.10705 | 13.06905 | 27195 ft | 454 kts | 108° |
| 2026-05-01 11:59 | -72.12123 | 13.19867 | 27567 ft | 454 kts | 108° |
| 2026-05-01 11:59 | -72.12819 | 13.26264 | 27886 ft | 452 kts | 107° |
| 2026-05-01 11:59 | -72.13866 | 13.35929 | 28173 ft | 453 kts | 108° |
| 2026-05-01 12:00 | -72.15965 | 13.55489 | 28393 ft | 461 kts | 107° |
| 2026-05-01 12:00 | -72.17014 | 13.65355 | 28731 ft | 461 kts | 107° |
| 2026-05-01 12:00 | -72.19097 | 13.85099 | 29361 ft | 460 kts | 107° |
| 2026-05-01 12:01 | -72.20130 | 13.94981 | 29621 ft | 460 kts | 107° |
| 2026-05-01 12:01 | -72.21158 | 14.04876 | 29840 ft | 460 kts | 107° |
| 2026-05-01 12:01 | -72.22183 | 14.14793 | 30045 ft | 461 kts | 107° |
| 2026-05-01 12:01 | -72.23206 | 14.24756 | 30242 ft | 461 kts | 107° |
| 2026-05-01 12:02 | -72.24222 | 14.34713 | 30443 ft | 462 kts | 107° |
| 2026-05-01 12:02 | -72.25235 | 14.44701 | 30643 ft | 462 kts | 107° |
| 2026-05-01 12:02 | -72.26244 | 14.54713 | 30915 ft | 461 kts | 107° |
| 2026-05-01 12:02 | -72.27241 | 14.64665 | 31231 ft | 459 kts | 107° |
| 2026-05-01 12:03 | -72.28233 | 14.74624 | 31411 ft | 459 kts | 107° |
| 2026-05-01 12:03 | -72.29221 | 14.84608 | 31583 ft | 460 kts | 107° |
| 2026-05-01 12:03 | -72.30208 | 14.94645 | 31759 ft | 461 kts | 107° |
| 2026-05-01 12:03 | -72.31188 | 15.04674 | 31940 ft | 462 kts | 107° |
| 2026-05-01 12:04 | -72.32166 | 15.14745 | 32119 ft | 462 kts | 107° |
| 2026-05-01 12:04 | -72.33128 | 15.24714 | 32290 ft | 463 kts | 107° |
| 2026-05-01 12:04 | -72.34098 | 15.34820 | 32469 ft | 463 kts | 107° |
| 2026-05-01 12:04 | -72.35063 | 15.44947 | 32631 ft | 464 kts | 107° |
| 2026-05-01 12:05 | -72.36025 | 15.55108 | 32743 ft | 466 kts | 107° |
| 2026-05-01 12:05 | -72.37942 | 15.75547 | 33035 ft | 466 kts | 107° |
| 2026-05-01 12:05 | -72.38894 | 15.85800 | 33222 ft | 467 kts | 107° |
| 2026-05-01 12:06 | -72.39838 | 15.96039 | 33396 ft | 466 kts | 106° |
| 2026-05-01 12:06 | -72.40772 | 16.06232 | 33554 ft | 465 kts | 106° |
| 2026-05-01 12:06 | -72.41708 | 16.16514 | 33656 ft | 466 kts | 106° |
| 2026-05-01 12:06 | -72.42636 | 16.26779 | 33743 ft | 467 kts | 106° |
| 2026-05-01 12:07 | -72.43562 | 16.37093 | 33851 ft | 467 kts | 106° |
| 2026-05-01 12:07 | -72.44483 | 16.47419 | 33986 ft | 467 kts | 106° |
| 2026-05-01 12:07 | -72.45397 | 16.57741 | 34093 ft | 468 kts | 106° |
| 2026-05-01 12:07 | -72.46309 | 16.68106 | 34191 ft | 469 kts | 106° |
| 2026-05-01 12:08 | -72.48122 | 16.88930 | 34301 ft | 472 kts | 105° |
| 2026-05-01 12:08 | -72.49926 | 17.09940 | 34302 ft | 473 kts | 105° |
| 2026-05-01 12:09 | -72.51705 | 17.30962 | 34327 ft | 471 kts | 105° |
| 2026-05-01 12:09 | -72.53456 | 17.51959 | 34313 ft | 470 kts | 105° |
| 2026-05-01 12:10 | -72.56039 | 17.83505 | 34325 ft | 472 kts | 104° |
| 2026-05-01 12:11 | -72.58580 | 18.15221 | 34323 ft | 472 kts | 104° |
| 2026-05-01 12:11 | -72.60244 | 18.36406 | 34330 ft | 471 kts | 104° |
| 2026-05-01 12:12 | -72.61887 | 18.57642 | 34331 ft | 472 kts | 104° |
| 2026-05-01 12:12 | -72.63496 | 18.78758 | 34337 ft | 471 kts | 103° |
| 2026-05-01 12:13 | -72.65090 | 19.00023 | 34333 ft | 471 kts | 103° |
| 2026-05-01 12:13 | -72.66661 | 19.21300 | 34335 ft | 470 kts | 103° |
| 2026-05-01 12:14 | -72.68209 | 19.42621 | 34345 ft | 470 kts | 103° |
| 2026-05-01 12:14 | -72.69735 | 19.63977 | 34342 ft | 470 kts | 103° |
| 2026-05-01 12:15 | -72.71238 | 19.85374 | 34345 ft | 471 kts | 102° |
| 2026-05-01 12:15 | -72.72723 | 20.06872 | 34357 ft | 472 kts | 102° |
| 2026-05-01 12:16 | -72.74185 | 20.28397 | 34354 ft | 472 kts | 102° |
| 2026-05-01 12:16 | -72.75622 | 20.49939 | 34357 ft | 471 kts | 101° |
| 2026-05-01 12:17 | -72.77037 | 20.71510 | 34369 ft | 471 kts | 101° |
| 2026-05-01 12:17 | -72.78427 | 20.93098 | 34368 ft | 471 kts | 101° |
| 2026-05-01 12:18 | -72.79795 | 21.14747 | 34368 ft | 471 kts | 101° |
| 2026-05-01 12:18 | -72.81142 | 21.36440 | 34372 ft | 471 kts | 100° |
| 2026-05-01 12:19 | -72.82463 | 21.58134 | 34358 ft | 471 kts | 99° |
| 2026-05-01 12:19 | -72.83765 | 21.79942 | 34360 ft | 474 kts | 100° |
| 2026-05-01 12:20 | -72.85050 | 22.01866 | 34359 ft | 474 kts | 99° |
| 2026-05-01 12:20 | -72.86308 | 22.23781 | 34355 ft | 474 kts | 99° |
| 2026-05-01 12:21 | -72.87536 | 22.45605 | 34347 ft | 474 kts | 99° |
| 2026-05-01 12:21 | -72.88746 | 22.67558 | 34348 ft | 474 kts | 99° |
| 2026-05-01 12:22 | -72.89934 | 22.89584 | 34345 ft | 473 kts | 98° |
| 2026-05-01 12:22 | -72.91098 | 23.11626 | 34327 ft | 474 kts | 98° |
| 2026-05-01 12:23 | -72.92238 | 23.33682 | 34339 ft | 474 kts | 98° |
| 2026-05-01 12:23 | -72.93355 | 23.55811 | 34314 ft | 474 kts | 97° |
| 2026-05-01 12:24 | -72.94448 | 23.77955 | 34312 ft | 474 kts | 97° |
| 2026-05-01 12:24 | -72.95516 | 24.00095 | 34314 ft | 474 kts | 97° |
| 2026-05-01 12:25 | -72.97096 | 24.33412 | 34283 ft | 476 kts | 98° |
| 2026-05-01 12:26 | -72.98124 | 24.55710 | 34275 ft | 475 kts | 96° |
| 2026-05-01 12:26 | -72.99567 | 24.89228 | 34263 ft | 475 kts | 95° |
| 2026-05-01 12:27 | -73.01031 | 25.22742 | 34288 ft | 475 kts | 96° |
| 2026-05-01 12:28 | -73.02563 | 25.56272 | 34288 ft | 475 kts | 96° |
| 2026-05-01 12:29 | -73.04019 | 25.89851 | 34324 ft | 475 kts | 95° |
| 2026-05-01 12:29 | -73.05408 | 26.23452 | 34373 ft | 474 kts | 95° |
| 2026-05-01 12:30 | -73.06743 | 26.57141 | 34461 ft | 476 kts | 95° |
| 2026-05-01 12:31 | -73.07603 | 26.79649 | 34489 ft | 476 kts | 95° |
| 2026-05-01 12:31 | -73.08440 | 27.02194 | 34490 ft | 476 kts | 95° |
| 2026-05-01 12:32 | -73.09246 | 27.24601 | 34540 ft | 476 kts | 95° |
| 2026-05-01 12:32 | -73.10417 | 27.58477 | 34540 ft | 477 kts | 94° |
| 2026-05-01 12:33 | -73.11170 | 27.81185 | 34573 ft | 479 kts | 93° |
| 2026-05-01 12:33 | -73.11900 | 28.03965 | 34570 ft | 479 kts | 94° |
| 2026-05-01 12:34 | -73.12604 | 28.26758 | 34570 ft | 479 kts | 94° |
| 2026-05-01 12:34 | -73.13283 | 28.49559 | 34608 ft | 479 kts | 93° |
| 2026-05-01 12:35 | -73.13936 | 28.72334 | 34602 ft | 478 kts | 93° |
| 2026-05-01 12:35 | -73.14564 | 28.95159 | 34604 ft | 478 kts | 93° |
| 2026-05-01 12:36 | -73.15166 | 29.18006 | 34619 ft | 480 kts | 93° |
| 2026-05-01 12:36 | -73.15745 | 29.40908 | 34618 ft | 480 kts | 92° |
| 2026-05-01 12:37 | -73.16299 | 29.63857 | 34607 ft | 480 kts | 92° |
| 2026-05-01 12:37 | -73.16827 | 29.86800 | 34608 ft | 480 kts | 92° |
| 2026-05-01 12:38 | -73.17330 | 30.09781 | 34610 ft | 480 kts | 92° |
| 2026-05-01 12:38 | -73.17808 | 30.32765 | 34584 ft | 480 kts | 91° |
| 2026-05-01 12:39 | -73.18259 | 30.55744 | 34576 ft | 480 kts | 91° |
| 2026-05-01 12:39 | -73.18683 | 30.78628 | 34583 ft | 481 kts | 91° |
| 2026-05-01 12:40 | -73.19084 | 31.01699 | 34543 ft | 481 kts | 91° |
| 2026-05-01 12:40 | -73.19460 | 31.24759 | 34540 ft | 481 kts | 91° |
| 2026-05-01 12:41 | -73.19810 | 31.47808 | 34504 ft | 481 kts | 90° |
| 2026-05-01 12:41 | -73.20135 | 31.70900 | 34502 ft | 480 kts | 90° |
| 2026-05-01 12:42 | -73.20432 | 31.93976 | 34502 ft | 480 kts | 90° |
| 2026-05-01 12:42 | -73.20705 | 32.17070 | 34518 ft | 481 kts | 90° |
| 2026-05-01 12:43 | -73.20952 | 32.40191 | 34519 ft | 481 kts | 89° |
| 2026-05-01 12:43 | -73.21174 | 32.63303 | 34528 ft | 481 kts | 89° |
| 2026-05-01 12:44 | -73.21369 | 32.86460 | 34528 ft | 481 kts | 88° |
| 2026-05-01 12:45 | -73.21683 | 33.32807 | 34524 ft | 482 kts | 89° |
| 2026-05-01 12:45 | -73.21801 | 33.56027 | 34509 ft | 483 kts | 89° |
| 2026-05-01 12:46 | -73.21894 | 33.79266 | 34524 ft | 484 kts | 88° |
| 2026-05-01 12:46 | -73.21960 | 34.02543 | 34511 ft | 484 kts | 88° |
| 2026-05-01 12:47 | -73.22000 | 34.25842 | 34510 ft | 483 kts | 88° |
| 2026-05-01 12:47 | -73.22014 | 34.45185 | 34511 ft | 484 kts | 88° |
| 2026-05-01 12:48 | -73.22002 | 34.72270 | 34496 ft | 484 kts | 87° |
| 2026-05-01 12:48 | -73.21964 | 34.95552 | 34500 ft | 484 kts | 88° |
| 2026-05-01 12:49 | -73.21900 | 35.18811 | 34485 ft | 485 kts | 88° |
| 2026-05-01 12:49 | -73.21826 | 35.38224 | 34485 ft | 486 kts | 87° |
| 2026-05-01 12:50 | -73.21713 | 35.61629 | 34483 ft | 486 kts | 87° |
| 2026-05-01 12:50 | -73.21574 | 35.85026 | 34470 ft | 486 kts | 87° |
| 2026-05-01 12:51 | -73.21408 | 36.08434 | 34474 ft | 486 kts | 86° |
| 2026-05-01 12:52 | -73.21110 | 36.43512 | 34469 ft | 486 kts | 86° |
| 2026-05-01 12:52 | -73.20753 | 36.78553 | 34465 ft | 487 kts | 86° |
| 2026-05-01 12:53 | -73.20335 | 37.13686 | 34470 ft | 487 kts | 86° |
| 2026-05-01 12:54 | -73.20024 | 37.37080 | 34478 ft | 487 kts | 86° |
| 2026-05-01 12:54 | -73.19507 | 37.72179 | 34476 ft | 488 kts | 85° |
| 2026-05-01 12:55 | -73.18930 | 38.07290 | 34482 ft | 488 kts | 85° |
| 2026-05-01 12:56 | -73.18513 | 38.30644 | 34494 ft | 488 kts | 85° |
| 2026-05-01 12:56 | -73.18070 | 38.53917 | 34508 ft | 489 kts | 85° |
| 2026-05-01 12:57 | -73.17599 | 38.77337 | 34508 ft | 489 kts | 85° |
| 2026-05-01 12:57 | -73.16843 | 39.12410 | 34522 ft | 489 kts | 84° |
| 2026-05-01 12:58 | -73.16305 | 39.35809 | 34509 ft | 489 kts | 84° |
| 2026-05-01 12:59 | -73.15449 | 39.70830 | 34521 ft | 488 kts | 84° |
| 2026-05-01 12:59 | -73.14547 | 40.05824 | 34507 ft | 489 kts | 84° |
| 2026-05-01 13:00 | -73.13562 | 40.40810 | 34515 ft | 488 kts | 83° |
| 2026-05-01 13:01 | -73.12527 | 40.75696 | 34509 ft | 489 kts | 83° |
| 2026-05-01 13:02 | -73.11434 | 41.10582 | 34496 ft | 488 kts | 83° |
| 2026-05-01 13:07 | -73.01615 | 43.65179 | 34510 ft | 490 kts | 81° |
| 2026-05-01 13:08 | -73.00564 | 43.88217 | 34511 ft | 490 kts | 80° |
| 2026-05-01 13:08 | -72.99469 | 44.11041 | 34504 ft | 489 kts | 79° |
| 2026-05-01 13:09 | -72.98135 | 44.33776 | 34504 ft | 489 kts | 77° |
| 2026-05-01 13:09 | -72.96726 | 44.56510 | 34503 ft | 490 kts | 77° |
| 2026-05-01 13:10 | -72.95320 | 44.79264 | 34500 ft | 490 kts | 77° |
| 2026-05-01 13:10 | -72.93910 | 45.01987 | 34511 ft | 490 kts | 77° |
| 2026-05-01 13:11 | -72.92479 | 45.24677 | 34509 ft | 490 kts | 77° |
| 2026-05-01 13:11 | -72.91024 | 45.47311 | 34482 ft | 490 kts | 77° |
| 2026-05-01 13:12 | -72.89542 | 45.69916 | 34478 ft | 490 kts | 77° |
| 2026-05-01 13:12 | -72.88032 | 45.92520 | 34485 ft | 490 kts | 76° |
| 2026-05-01 13:13 | -72.86499 | 46.15059 | 34482 ft | 490 kts | 76° |
| 2026-05-01 13:13 | -72.84942 | 46.37537 | 34467 ft | 490 kts | 76° |
| 2026-05-01 13:14 | -72.83362 | 46.59952 | 34467 ft | 489 kts | 76° |
| 2026-05-01 13:14 | -72.81759 | 46.82303 | 34465 ft | 489 kts | 75° |
| 2026-05-01 13:15 | -72.80133 | 47.04600 | 34467 ft | 489 kts | 75° |
| 2026-05-01 13:15 | -72.78480 | 47.26881 | 34460 ft | 490 kts | 75° |
| 2026-05-01 13:16 | -72.76798 | 47.49188 | 34461 ft | 491 kts | 75° |
| 2026-05-01 13:16 | -72.75088 | 47.71486 | 34452 ft | 491 kts | 75° |
| 2026-05-01 13:17 | -72.71600 | 48.15910 | 34454 ft | 491 kts | 74° |
| 2026-05-01 13:18 | -72.68931 | 48.48968 | 34442 ft | 491 kts | 73° |
| 2026-05-01 13:18 | -72.67119 | 48.70986 | 34450 ft | 489 kts | 73° |
| 2026-05-01 13:19 | -72.65285 | 48.92933 | 34454 ft | 489 kts | 73° |
| 2026-05-01 13:20 | -72.62493 | 49.25723 | 34456 ft | 488 kts | 73° |
| 2026-05-01 13:20 | -72.60600 | 49.47547 | 34454 ft | 488 kts | 72° |
| 2026-05-01 13:21 | -72.57718 | 49.80184 | 34465 ft | 488 kts | 72° |
| 2026-05-01 13:21 | -72.55766 | 50.01897 | 34464 ft | 490 kts | 72° |
| 2026-05-01 13:22 | -72.53784 | 50.23650 | 34465 ft | 491 kts | 72° |
| 2026-05-01 13:22 | -72.51776 | 50.45359 | 34459 ft | 491 kts | 71° |
| 2026-05-01 13:23 | -72.49745 | 50.67014 | 34486 ft | 491 kts | 71° |
| 2026-05-01 13:23 | -72.47694 | 50.88586 | 34478 ft | 490 kts | 71° |
| 2026-05-01 13:24 | -72.45622 | 51.10086 | 34476 ft | 489 kts | 71° |
| 2026-05-01 13:25 | -72.42469 | 51.42262 | 34476 ft | 491 kts | 70° |
| 2026-05-01 13:25 | -72.40332 | 51.63702 | 34470 ft | 492 kts | 70° |
| 2026-05-01 13:26 | -72.38169 | 51.85137 | 34469 ft | 491 kts | 70° |
| 2026-05-01 13:26 | -72.35987 | 52.06481 | 34467 ft | 491 kts | 69° |
| 2026-05-01 13:27 | -72.33778 | 52.27801 | 34467 ft | 491 kts | 69° |
| 2026-05-01 13:27 | -72.30425 | 52.59660 | 34458 ft | 491 kts | 69° |
| 2026-05-01 13:28 | -72.27016 | 52.91448 | 34484 ft | 492 kts | 68° |
| 2026-05-01 13:29 | -72.22387 | 53.33685 | 34503 ft | 492 kts | 68° |
| 2026-05-01 13:31 | -72.15294 | 53.96478 | 34497 ft | 492 kts | 67° |
| 2026-05-01 13:32 | -72.09219 | 54.48526 | 34506 ft | 492 kts | 67° |
| 2026-05-01 13:33 | -72.03011 | 55.00197 | 34528 ft | 492 kts | 66° |
| 2026-05-01 13:34 | -71.97947 | 55.41279 | 34506 ft | 492 kts | 65° |
| 2026-05-01 13:35 | -71.94089 | 55.71974 | 34513 ft | 492 kts | 65° |
| 2026-05-01 13:36 | -71.90182 | 56.02545 | 34500 ft | 492 kts | 65° |
| 2026-05-01 13:36 | -71.86677 | 56.29547 | 34497 ft | 492 kts | 64° |
| 2026-05-01 13:37 | -71.84017 | 56.49785 | 34487 ft | 492 kts | 64° |
| 2026-05-01 13:37 | -71.81337 | 56.69955 | 34520 ft | 492 kts | 64° |
| 2026-05-01 13:38 | -71.77281 | 57.00081 | 34505 ft | 492 kts | 63° |
| 2026-05-01 13:39 | -71.74547 | 57.20123 | 34505 ft | 492 kts | 63° |
| 2026-05-01 13:39 | -71.71793 | 57.40097 | 34507 ft | 492 kts | 63° |
| 2026-05-01 13:40 | -71.69021 | 57.59999 | 34504 ft | 492 kts | 63° |
| 2026-05-01 13:40 | -71.66229 | 57.79832 | 34494 ft | 492 kts | 62° |
| 2026-05-01 13:41 | -71.63438 | 57.99462 | 34520 ft | 491 kts | 62° |
| 2026-05-01 13:41 | -71.60609 | 58.19158 | 34520 ft | 491 kts | 62° |
| 2026-05-01 13:42 | -71.57760 | 58.38788 | 34523 ft | 491 kts | 62° |
| 2026-05-01 13:42 | -71.54895 | 58.58336 | 34523 ft | 491 kts | 61° |
| 2026-05-01 13:43 | -71.52006 | 58.77848 | 34554 ft | 491 kts | 61° |
| 2026-05-01 13:43 | -71.49098 | 58.97302 | 34515 ft | 491 kts | 60° |
| 2026-05-01 13:44 | -71.46173 | 59.16678 | 34546 ft | 490 kts | 60° |
| 2026-05-01 13:44 | -71.43232 | 59.35970 | 34539 ft | 490 kts | 60° |
| 2026-05-01 13:45 | -71.40275 | 59.55173 | 34559 ft | 489 kts | 60° |
| 2026-05-01 13:45 | -71.37299 | 59.74318 | 34546 ft | 489 kts | 60° |
| 2026-05-01 13:46 | -71.34309 | 59.93373 | 34549 ft | 489 kts | 59° |
| 2026-05-01 13:46 | -71.31299 | 60.12372 | 34547 ft | 488 kts | 59° |
| 2026-05-01 13:47 | -71.28273 | 60.31300 | 34563 ft | 487 kts | 59° |
| 2026-05-01 13:47 | -71.25236 | 60.50116 | 34549 ft | 486 kts | 59° |
| 2026-05-01 13:48 | -71.22185 | 60.68839 | 34555 ft | 486 kts | 58° |
| 2026-05-01 13:48 | -71.19105 | 60.87560 | 34543 ft | 487 kts | 58° |
| 2026-05-01 13:49 | -71.16008 | 61.06223 | 34563 ft | 488 kts | 58° |
| 2026-05-01 13:49 | -71.12893 | 61.24827 | 34558 ft | 487 kts | 58° |
| 2026-05-01 13:50 | -71.09757 | 61.43382 | 34544 ft | 487 kts | 57° |
| 2026-05-01 13:50 | -71.06609 | 61.61842 | 34540 ft | 486 kts | 57° |
| 2026-05-01 13:51 | -71.03447 | 61.80220 | 34553 ft | 486 kts | 57° |
| 2026-05-01 13:51 | -71.00382 | 61.98628 | 34553 ft | 490 kts | 63° |
| 2026-05-01 13:52 | -70.98220 | 62.18550 | 34536 ft | 494 kts | 69° |
| 2026-05-01 13:52 | -70.96295 | 62.38784 | 34541 ft | 495 kts | 69° |
| 2026-05-01 13:53 | -70.94377 | 62.59067 | 34548 ft | 496 kts | 69° |
| 2026-05-01 13:53 | -70.91424 | 62.89428 | 34522 ft | 497 kts | 68° |
| 2026-05-01 13:54 | -70.89416 | 63.09598 | 34534 ft | 496 kts | 68° |
| 2026-05-01 13:54 | -70.87385 | 63.29727 | 34497 ft | 496 kts | 68° |
| 2026-05-01 13:55 | -70.85335 | 63.49792 | 34498 ft | 496 kts | 67° |
| 2026-05-01 13:55 | -70.83261 | 63.69838 | 34524 ft | 496 kts | 67° |
| 2026-05-01 13:56 | -70.81170 | 63.89805 | 34529 ft | 496 kts | 67° |
| 2026-05-01 13:56 | -70.79047 | 64.09811 | 34499 ft | 498 kts | 66° |
| 2026-05-01 13:57 | -70.76898 | 64.29825 | 34548 ft | 498 kts | 66° |
| 2026-05-01 13:57 | -70.74732 | 64.49761 | 34548 ft | 498 kts | 66° |
| 2026-05-01 13:58 | -70.72544 | 64.69660 | 34548 ft | 498 kts | 65° |
| 2026-05-01 13:58 | -70.70336 | 64.89496 | 34537 ft | 498 kts | 65° |
| 2026-05-01 13:59 | -70.68105 | 65.09296 | 34525 ft | 498 kts | 65° |
| 2026-05-01 13:59 | -70.65855 | 65.29038 | 34527 ft | 497 kts | 65° |
| 2026-05-01 14:00 | -70.63580 | 65.48759 | 34521 ft | 499 kts | 65° |
| 2026-05-01 14:00 | -70.61275 | 65.68518 | 34514 ft | 501 kts | 64° |
| 2026-05-01 14:01 | -70.58947 | 65.88253 | 34525 ft | 501 kts | 64° |
| 2026-05-01 14:01 | -70.56594 | 66.07974 | 34525 ft | 501 kts | 64° |
| 2026-05-01 14:02 | -70.54237 | 66.27505 | 34528 ft | 501 kts | 63° |
| 2026-05-01 14:02 | -70.51829 | 66.47229 | 34537 ft | 501 kts | 63° |
| 2026-05-01 14:03 | -70.49416 | 66.66780 | 34536 ft | 500 kts | 63° |
| 2026-05-01 14:03 | -70.46981 | 66.86283 | 34551 ft | 502 kts | 63° |
| 2026-05-01 14:04 | -70.44525 | 67.05733 | 34564 ft | 504 kts | 63° |
| 2026-05-01 14:04 | -70.42438 | 67.22112 | 34564 ft | 504 kts | 63° |
| 2026-05-01 14:05 | -70.39517 | 67.44797 | 34583 ft | 504 kts | 62° |
| 2026-05-01 14:05 | -70.36983 | 67.64237 | 34592 ft | 504 kts | 62° |
| 2026-05-01 14:06 | -70.34427 | 67.83641 | 34596 ft | 504 kts | 62° |
| 2026-05-01 14:06 | -70.31854 | 68.02965 | 34591 ft | 504 kts | 62° |
| 2026-05-01 14:07 | -70.29258 | 68.22254 | 34588 ft | 504 kts | 62° |
| 2026-05-01 14:08 | -70.25316 | 68.51161 | 34594 ft | 507 kts | 60° |
| 2026-05-01 14:08 | -70.22651 | 68.70458 | 34601 ft | 507 kts | 60° |
| 2026-05-01 14:09 | -70.19968 | 68.89696 | 34586 ft | 507 kts | 60° |
| 2026-05-01 14:09 | -70.17263 | 69.08889 | 34580 ft | 507 kts | 60° |
| 2026-05-01 14:10 | -70.14540 | 69.28008 | 34585 ft | 507 kts | 59° |
| 2026-05-01 14:10 | -70.11796 | 69.47082 | 34576 ft | 506 kts | 59° |
| 2026-05-01 14:11 | -70.09032 | 69.66105 | 34563 ft | 506 kts | 59° |
| 2026-05-01 14:11 | -70.04857 | 69.94493 | 34558 ft | 505 kts | 58° |
| 2026-05-01 14:12 | -70.02052 | 70.13323 | 34551 ft | 505 kts | 58° |
| 2026-05-01 14:12 | -69.99230 | 70.32091 | 34537 ft | 504 kts | 58° |
| 2026-05-01 14:13 | -69.96869 | 70.47644 | 34537 ft | 504 kts | 58° |
| 2026-05-01 14:13 | -69.93530 | 70.69440 | 34528 ft | 504 kts | 58° |
| 2026-05-01 14:14 | -69.90670 | 70.87918 | 34519 ft | 504 kts | 58° |
| 2026-05-01 14:14 | -69.87759 | 71.06533 | 34521 ft | 508 kts | 58° |
| 2026-05-01 14:15 | -69.84804 | 71.25267 | 34512 ft | 506 kts | 58° |
| 2026-05-01 14:15 | -69.81883 | 71.43635 | 34498 ft | 504 kts | 57° |
| 2026-05-01 14:16 | -69.78927 | 71.62024 | 34486 ft | 504 kts | 57° |
| 2026-05-01 14:16 | -69.75950 | 71.80370 | 34486 ft | 504 kts | 57° |
| 2026-05-01 14:17 | -69.72958 | 71.98642 | 34473 ft | 504 kts | 57° |
| 2026-05-01 14:17 | -69.69946 | 72.16872 | 34452 ft | 504 kts | 57° |
| 2026-05-01 14:18 | -69.66908 | 72.35086 | 34460 ft | 507 kts | 57° |
| 2026-05-01 14:18 | -69.64335 | 72.50384 | 34446 ft | 507 kts | 57° |
| 2026-05-01 14:19 | -69.60762 | 72.71465 | 34442 ft | 505 kts | 56° |
| 2026-05-01 14:19 | -69.57671 | 72.89515 | 34443 ft | 504 kts | 56° |
| 2026-05-01 14:20 | -69.53002 | 73.16466 | 34428 ft | 504 kts | 56° |
| 2026-05-01 14:21 | -69.49865 | 73.34376 | 34423 ft | 504 kts | 56° |
| 2026-05-01 14:21 | -69.46715 | 73.52205 | 34414 ft | 505 kts | 56° |
| 2026-05-01 14:22 | -69.41926 | 73.79012 | 34406 ft | 507 kts | 56° |
| 2026-05-01 14:22 | -69.38723 | 73.96767 | 34403 ft | 505 kts | 56° |
| 2026-05-01 14:23 | -69.35504 | 74.14451 | 34401 ft | 504 kts | 55° |
| 2026-05-01 14:23 | -69.32265 | 74.32076 | 34400 ft | 504 kts | 55° |
| 2026-05-01 14:24 | -69.29032 | 74.49530 | 34398 ft | 504 kts | 55° |
| 2026-05-01 14:24 | -69.26325 | 74.64032 | 34398 ft | 504 kts | 55° |
| 2026-05-01 14:25 | -69.23037 | 74.81510 | 34396 ft | 506 kts | 54° |
| 2026-05-01 14:25 | -69.19849 | 74.98309 | 34371 ft | 507 kts | 55° |
| 2026-05-01 14:26 | -69.15244 | 75.22374 | 34385 ft | 504 kts | 54° |
| 2026-05-01 14:27 | -69.12119 | 75.38535 | 34386 ft | 504 kts | 54° |
| 2026-05-01 14:27 | -69.08944 | 75.54825 | 34383 ft | 504 kts | 54° |
| 2026-05-01 14:28 | -69.04127 | 75.79301 | 34379 ft | 504 kts | 54° |
| 2026-05-01 14:28 | -69.00694 | 75.96324 | 34382 ft | 500 kts | 50° |
| 2026-05-01 14:29 | -68.96469 | 76.11461 | 34367 ft | 494 kts | 41° |
| 2026-05-01 14:30 | -68.87803 | 76.38928 | 34388 ft | 490 kts | 40° |
| 2026-05-01 14:31 | -68.81382 | 76.58985 | 34369 ft | 490 kts | 40° |
| 2026-05-01 14:31 | -68.76862 | 76.73050 | 34367 ft | 490 kts | 40° |
| 2026-05-01 14:32 | -68.72333 | 76.87061 | 34361 ft | 489 kts | 40° |
| 2026-05-01 14:32 | -68.67793 | 77.01014 | 34348 ft | 489 kts | 40° |
| 2026-05-01 14:33 | -68.63264 | 77.14844 | 34361 ft | 486 kts | 40° |
| 2026-05-01 14:33 | -68.58732 | 77.28586 | 34363 ft | 487 kts | 40° |
| 2026-05-01 14:34 | -68.54162 | 77.42338 | 34364 ft | 489 kts | 40° |
| 2026-05-01 14:34 | -68.49605 | 77.55977 | 34362 ft | 490 kts | 40° |
| 2026-05-01 14:35 | -68.45008 | 77.69654 | 34362 ft | 489 kts | 40° |
| 2026-05-01 14:35 | -68.40404 | 77.83258 | 34329 ft | 489 kts | 40° |
| 2026-05-01 14:36 | -68.35798 | 77.96782 | 34351 ft | 487 kts | 40° |
| 2026-05-01 14:36 | -68.31195 | 78.10212 | 34350 ft | 486 kts | 40° |
| 2026-05-01 14:37 | -68.26581 | 78.23580 | 34349 ft | 486 kts | 40° |
| 2026-05-01 14:37 | -68.21958 | 78.36892 | 34347 ft | 486 kts | 40° |
| 2026-05-01 14:38 | -68.17337 | 78.50115 | 34345 ft | 486 kts | 39° |
| 2026-05-01 14:38 | -68.12873 | 78.62802 | 34347 ft | 489 kts | 39° |
| 2026-05-01 14:39 | -68.09361 | 78.72736 | 34354 ft | 490 kts | 39° |
| 2026-05-01 14:39 | -68.05390 | 78.83984 | 34348 ft | 490 kts | 39° |
| 2026-05-01 14:40 | -68.01120 | 78.95927 | 34358 ft | 489 kts | 39° |
| 2026-05-01 14:40 | -67.97505 | 79.05966 | 34357 ft | 489 kts | 39° |
| 2026-05-01 14:41 | -67.92790 | 79.18911 | 34358 ft | 489 kts | 39° |
| 2026-05-01 14:41 | -67.88071 | 79.31935 | 34360 ft | 489 kts | 39° |
| 2026-05-01 14:42 | -67.83433 | 79.44652 | 34363 ft | 488 kts | 39° |
| 2026-05-01 14:42 | -67.79657 | 79.54941 | 34364 ft | 484 kts | 39° |
| 2026-05-01 14:43 | -67.75520 | 79.66135 | 34361 ft | 483 kts | 39° |
| 2026-05-01 14:43 | -67.71162 | 79.77852 | 34358 ft | 485 kts | 39° |
| 2026-05-01 14:44 | -67.66417 | 79.90533 | 34357 ft | 486 kts | 39° |
| 2026-05-01 14:44 | -67.59403 | 80.09159 | 34362 ft | 486 kts | 38° |
| 2026-05-01 14:45 | -67.52587 | 80.27101 | 34359 ft | 484 kts | 39° |
| 2026-05-01 14:46 | -67.47810 | 80.39584 | 34362 ft | 482 kts | 39° |
| 2026-05-01 14:46 | -67.41050 | 80.57109 | 34362 ft | 482 kts | 38° |
| 2026-05-01 14:47 | -67.37283 | 80.66814 | 34356 ft | 482 kts | 38° |
| 2026-05-01 14:48 | -67.30360 | 80.84531 | 34357 ft | 482 kts | 38° |
| 2026-05-01 14:48 | -67.23176 | 81.02755 | 34346 ft | 481 kts | 38° |
| 2026-05-01 14:49 | -67.15122 | 81.23001 | 34345 ft | 481 kts | 38° |
| 2026-05-01 14:50 | -67.07249 | 81.42595 | 34344 ft | 480 kts | 38° |
| 2026-05-01 14:51 | -67.00329 | 81.59664 | 34331 ft | 480 kts | 38° |
| 2026-05-01 14:52 | -66.93864 | 81.75489 | 34329 ft | 477 kts | 38° |
| 2026-05-01 14:53 | -66.87890 | 81.89983 | 34331 ft | 475 kts | 38° |
| 2026-05-01 14:53 | -66.83090 | 82.01569 | 34331 ft | 476 kts | 38° |
| 2026-05-01 14:54 | -66.78490 | 82.12616 | 34320 ft | 476 kts | 38° |
| 2026-05-01 14:54 | -66.74913 | 82.21166 | 34321 ft | 476 kts | 38° |
| 2026-05-01 14:55 | -66.70812 | 82.30919 | 34324 ft | 475 kts | 38° |
| 2026-05-01 14:55 | -66.66667 | 82.40733 | 34308 ft | 474 kts | 38° |
| 2026-05-01 14:56 | -66.61905 | 82.51950 | 34307 ft | 471 kts | 38° |
| 2026-05-01 14:56 | -66.57358 | 82.62590 | 34295 ft | 471 kts | 38° |
| 2026-05-01 14:57 | -66.52927 | 82.72909 | 34296 ft | 471 kts | 38° |
| 2026-05-01 14:57 | -66.46753 | 82.87203 | 34284 ft | 471 kts | 37° |
| 2026-05-01 14:58 | -66.42062 | 82.97997 | 34281 ft | 471 kts | 37° |
| 2026-05-01 14:58 | -66.37291 | 83.08915 | 34288 ft | 470 kts | 37° |
| 2026-05-01 14:59 | -66.32831 | 83.19071 | 34278 ft | 469 kts | 37° |
| 2026-05-01 14:59 | -66.28464 | 83.28965 | 34279 ft | 469 kts | 37° |
| 2026-05-01 15:00 | -66.21212 | 83.45286 | 34275 ft | 469 kts | 37° |
| 2026-05-01 15:01 | -66.16375 | 83.56100 | 34276 ft | 469 kts | 37° |
| 2026-05-01 15:01 | -66.11525 | 83.66884 | 34236 ft | 469 kts | 37° |
| 2026-05-01 15:02 | -66.06890 | 83.77139 | 34252 ft | 467 kts | 37° |
| 2026-05-01 15:02 | -66.02050 | 83.87790 | 34261 ft | 467 kts | 37° |
| 2026-05-01 15:03 | -65.97375 | 83.98023 | 34247 ft | 466 kts | 37° |
| 2026-05-01 15:03 | -65.92750 | 84.08093 | 34254 ft | 468 kts | 37° |
| 2026-05-01 15:04 | -65.87876 | 84.18653 | 34240 ft | 468 kts | 37° |
| 2026-05-01 15:04 | -65.83336 | 84.28441 | 34248 ft | 468 kts | 36° |
| 2026-05-01 15:05 | -65.78446 | 84.38931 | 34246 ft | 467 kts | 37° |
| 2026-05-01 15:05 | -65.73598 | 84.49277 | 34236 ft | 467 kts | 37° |
| 2026-05-01 15:06 | -65.68709 | 84.59652 | 34249 ft | 467 kts | 36° |
| 2026-05-01 15:06 | -65.64158 | 84.69263 | 34234 ft | 466 kts | 36° |
| 2026-05-01 15:07 | -65.59732 | 84.78565 | 34234 ft | 466 kts | 36° |
| 2026-05-01 15:07 | -65.55303 | 84.87830 | 34234 ft | 466 kts | 36° |
| 2026-05-01 15:08 | -65.50395 | 84.98046 | 34212 ft | 466 kts | 36° |
| 2026-05-01 15:08 | -65.45507 | 85.08169 | 34229 ft | 467 kts | 36° |
| 2026-05-01 15:09 | -65.40808 | 85.17851 | 34219 ft | 467 kts | 36° |
| 2026-05-01 15:09 | -65.36575 | 85.26537 | 34220 ft | 467 kts | 36° |
| 2026-05-01 15:10 | -65.32294 | 85.35278 | 34236 ft | 467 kts | 36° |
| 2026-05-01 15:10 | -65.25940 | 85.48182 | 34227 ft | 467 kts | 35° |
| 2026-05-01 15:11 | -65.18526 | 85.63133 | 34213 ft | 467 kts | 35° |
| 2026-05-01 15:12 | -65.13744 | 85.72715 | 34208 ft | 467 kts | 35° |
| 2026-05-01 15:12 | -65.08282 | 85.83605 | 34215 ft | 467 kts | 35° |
| 2026-05-01 15:14 | -64.97396 | 86.05604 | 34202 ft | 473 kts | 39° |
| 2026-05-01 15:14 | -64.91099 | 86.21250 | 34206 ft | 473 kts | 42° |
| 2026-05-01 15:15 | -64.82255 | 86.42874 | 34217 ft | 470 kts | 40° |
| 2026-05-01 15:16 | -64.73879 | 86.62763 | 34203 ft | 470 kts | 40° |
| 2026-05-01 15:18 | -64.63957 | 86.86109 | 34201 ft | 470 kts | 40° |
| 2026-05-01 15:19 | -64.55798 | 87.05130 | 34181 ft | 468 kts | 40° |
| 2026-05-01 15:19 | -64.49373 | 87.19984 | 34195 ft | 468 kts | 40° |
| 2026-05-01 15:20 | -64.43453 | 87.33518 | 34179 ft | 468 kts | 40° |
| 2026-05-01 15:21 | -64.38829 | 87.44103 | 34180 ft | 468 kts | 40° |
| 2026-05-01 15:21 | -64.34547 | 87.53862 | 34190 ft | 468 kts | 39° |
| 2026-05-01 15:22 | -64.28001 | 87.68664 | 34177 ft | 465 kts | 39° |
| 2026-05-01 15:22 | -64.23362 | 87.79079 | 34189 ft | 466 kts | 39° |
| 2026-05-01 15:23 | -64.18715 | 87.89461 | 34178 ft | 466 kts | 39° |
| 2026-05-01 15:23 | -64.14059 | 87.99814 | 34178 ft | 466 kts | 39° |
| 2026-05-01 15:24 | -64.09426 | 88.10067 | 34164 ft | 466 kts | 39° |
| 2026-05-01 15:24 | -64.04759 | 88.20343 | 34178 ft | 466 kts | 39° |
| 2026-05-01 15:25 | -64.00394 | 88.29910 | 34185 ft | 464 kts | 39° |
| 2026-05-01 15:25 | -63.96154 | 88.39166 | 34163 ft | 461 kts | 39° |
| 2026-05-01 15:26 | -63.92655 | 88.46767 | 34002 ft | 463 kts | 39° |
| 2026-05-01 15:26 | -63.88152 | 88.56504 | 34098 ft | 462 kts | 39° |
| 2026-05-01 15:27 | -63.83747 | 88.65995 | 34169 ft | 463 kts | 38° |
| 2026-05-01 15:28 | -63.77627 | 88.79109 | 34180 ft | 462 kts | 38° |
| 2026-05-01 15:28 | -63.73567 | 88.87761 | 34156 ft | 462 kts | 38° |
| 2026-05-01 15:29 | -63.67800 | 88.99993 | 34159 ft | 459 kts | 38° |
| 2026-05-01 15:30 | -63.59320 | 89.17842 | 34169 ft | 458 kts | 38° |
| 2026-05-01 15:31 | -63.46590 | 89.44356 | 34159 ft | 460 kts | 38° |
| 2026-05-01 15:32 | -63.37424 | 89.63243 | 34171 ft | 458 kts | 38° |
| 2026-05-01 15:34 | -63.23341 | 89.91926 | 34166 ft | 457 kts | 38° |